Latest Weather Observations for Point Avoid

IDS60801

Issued at 6:02 am CST Saturday 19 September 2020 (issued every 10 minutes, with the page automatically refreshed every 10 minutes)

About weather observations | Map of weather stations | Latest weather observations for SA | Other Formats
Station Details ID: 018230 Name: POINT AVOID Lat: -34.67 Lon: 135.34 Height: 35.0 m
Data from the previous 72 hours. | See also: Recent months at Point Avoid
Date/Time
CST
Temp
°C
App
Temp
°C
Dew
Point
°C
Rel
Hum
%
Delta-T
°C
Wind Press
QNH
hPa
Press
MSL
hPa
Rain since
9am
mm
Dir  Spd
km/h
Gust
km/h
Spd
kts
Gust
kts
19/06:00am 13.8 12.8 13.5 98 0.2 NE 11 15 6 8 1007.1 1007.1 0.4
19/05:30am 14.2 14.0 13.7 97 0.3 NE 7 11 4 6 1006.9 1006.9 0.4
19/05:00am 14.7 12.9 14.4 98 0.2 ENE 17 26 9 14 1006.5 1006.5 0.4
19/04:30am 14.7 12.9 14.5 99 0.1 E 17 22 9 12 1005.7 1005.7 0.4
19/04:00am 15.1 12.5 14.8 98 0.2 ESE 22 28 12 15 1006.2 1006.2 0.4
19/03:30am 15.9 14.4 14.3 90 0.9 E 15 20 8 11 1007.7 1007.7 0.4
19/03:00am 16.0 13.0 13.8 87 1.2 ESE 22 28 12 15 1007.1 1007.1 0.4
19/02:30am 15.3 13.5 14.5 95 0.5 SE 17 19 9 10 1007.7 1007.7 0.4
19/02:00am 15.1 13.7 14.6 97 0.3 SE 15 17 8 9 1008.4 1008.4 0.4
19/01:30am 15.1 13.7 14.6 97 0.3 SE 15 17 8 9 1008.8 1008.8 0.4
19/01:00am 14.9 13.3 14.9 100 0.0 SE 17 19 9 10 1009.1 1009.1 0.4
19/12:30am 14.8 15.0 14.8 100 0.0 SE 7 9 4 5 1009.8 1009.7 0.4
19/12:00am 14.8 15.0 14.8 100 0.0 ESE 7 9 4 5 1010.5 1010.4 0.4
 
Date/Time
CST
Temp
°C
App
Temp
°C
Dew
Point
°C
Rel
Hum
%
Delta-T
°C
Wind Press
QNH
hPa
Press
MSL
hPa
Rain since
9am
mm
Dir  Spd
km/h
Gust
km/h
Spd
kts
Gust
kts
18/11:30pm 14.8 15.2 14.8 100 0.0 E 6 7 3 4 1010.6 1010.5 0.4
18/11:00pm 15.0 15.3 15.0 100 0.0 E 7 9 4 5 1011.5 1011.5 0.4
18/10:30pm 15.3 15.6 15.1 99 0.1 ESE 7 9 4 5 1012.1 1012.1 0.4
18/10:00pm 15.7 14.9 15.2 97 0.3 ENE 13 17 7 9 1012.9 1012.9 0.0
18/09:30pm 15.1 15.4 14.5 96 0.3 NNW 6 7 3 4 1012.5 1012.5 0.0
18/09:00pm 15.1 15.4 14.6 97 0.3 NNW 6 7 3 4 1012.0 1012.0 0.0
18/08:30pm 15.5 16.0 14.9 96 0.3 NNW 6 9 3 5 1012.0 1012.0 0.0
18/08:00pm 15.9 15.1 15.1 95 0.5 NNW 13 19 7 10 1012.2 1012.2 0.0
18/07:30pm 16.6 16.9 15.0 90 0.9 NNE 7 11 4 6 1012.8 1012.8 0.0
18/07:00pm 16.6 16.8 14.8 89 1.0 N 7 9 4 5 1012.1 1012.1 0.0
18/06:30pm 17.0 17.2 14.6 86 1.4 WSW 7 11 4 6 1011.8 1011.8 0.0
18/06:00pm 17.2 17.4 14.7 85 1.4 NW 7 11 4 6 1011.6 1011.6 0.0
18/05:30pm 17.7 15.4 14.2 80 2.0 NNW 19 30 10 16 1012.0 1012.0 0.0
18/05:00pm 19.4 18.0 14.6 74 2.8 NW 15 20 8 11 1011.2 1011.1 0.0
18/04:30pm 23.9 18.7 13.4 51 6.1 NNE 33 57 18 31 1009.7 1009.6 0.0
18/04:24pm 21.9 16.5 14.0 61 4.6 NE 35 56 19 30 1010.3 1010.2 0.0
18/04:00pm 23.6 18.7 13.8 54 5.7 E 32 43 17 23 1008.8 1008.8 0.0
18/03:30pm 25.0 19.7 14.2 51 6.4 E 35 46 19 25 1009.3 1009.3 0.0
18/03:00pm 25.4 20.4 13.9 49 6.8 E 33 43 18 23 1009.5 1009.5 0.0
18/02:30pm 25.2 20.5 14.3 50 6.5 E 32 44 17 24 1009.9 1009.8 0.0
18/02:00pm 24.9 20.6 14.4 52 6.2 E 30 43 16 23 1010.9 1010.8 0.0
18/01:30pm 24.8 21.1 15.1 54 5.8 E 28 39 15 21 1011.2 1011.1 0.0
18/01:00pm 24.7 21.5 15.3 56 5.7 E 26 35 14 19 1011.7 1011.7 0.0
18/12:30pm 23.4 20.0 14.7 58 5.2 E 26 37 14 20 1012.4 1012.4 0.0
18/12:00pm 23.9 20.7 15.4 59 5.1 E 26 43 14 23 1012.9 1012.9 0.0
18/11:30am 22.2 18.8 14.8 63 4.4 E 26 39 14 21 1013.1 1013.1 0.0
18/11:00am 21.3 16.9 14.0 63 4.2 E 30 39 16 21 1013.7 1013.7 0.0
18/10:30am 20.3 15.6 14.2 68 3.5 E 32 43 17 23 1013.9 1013.9 0.0
18/10:00am 20.3 15.4 14.2 68 3.5 E 33 43 18 23 1014.2 1014.2 0.0
18/09:30am 19.9 14.3 14.5 71 3.1 E 37 46 20 25 1014.1 1014.1 0.0
18/09:00am 19.1 13.7 13.9 72 3.0 ENE 35 46 19 25 1014.2 1014.2 2.8
18/08:30am 18.8 13.8 14.1 74 2.7 ENE 33 44 18 24 1014.3 1014.3 2.8
18/08:00am 17.0 11.8 13.5 80 2.0 E 33 48 18 26 1014.4 1014.4 2.8
18/07:30am 15.7 12.1 13.0 84 1.5 E 24 33 13 18 1014.8 1014.8 2.8
18/07:00am 14.9 14.2 13.3 90 0.9 ESE 9 13 5 7 1015.1 1015.1 2.8
18/06:30am 14.8 12.3 13.5 92 0.7 ESE 19 24 10 13 1014.8 1014.8 2.8
18/06:00am 14.8 10.5 13.3 91 0.8 E 28 39 15 21 1014.5 1014.5 2.8
18/05:30am 14.7 10.1 13.4 92 0.7 ESE 30 37 16 20 1014.2 1014.2 2.8
18/05:00am 14.7 11.2 13.4 92 0.7 ESE 24 32 13 17 1014.5 1014.5 2.8
18/04:30am 14.7 12.1 13.7 94 0.6 SE 20 30 11 16 1014.5 1014.5 2.8
18/04:00am 14.5 10.7 13.7 95 0.4 ESE 26 30 14 16 1014.3 1014.3 2.8
18/03:30am 14.5 10.7 13.5 94 0.6 ESE 26 33 14 18 1014.6 1014.6 2.8
18/03:00am 14.4 11.7 13.6 95 0.4 ESE 20 26 11 14 1015.0 1015.0 2.8
18/02:30am 14.5 10.0 13.7 95 0.4 ESE 30 37 16 20 1015.3 1015.3 2.8
18/02:00am 14.2 9.6 13.6 96 0.3 SE 30 39 16 21 1015.7 1015.7 2.8
18/01:30am 14.4 9.5 13.8 96 0.3 ESE 32 43 17 23 1016.2 1016.2 2.8
18/01:00am 14.3 10.2 13.7 96 0.3 ESE 28 39 15 21 1016.3 1016.3 2.8
18/12:30am 14.2 10.8 13.7 97 0.3 ESE 24 32 13 17 1016.7 1016.7 2.8
18/12:00am 14.2 10.7 13.4 95 0.4 ESE 24 39 13 21 1016.7 1016.7 2.8
 
Date/Time
CST
Temp
°C
App
Temp
°C
Dew
Point
°C
Rel
Hum
%
Delta-T
°C
Wind Press
QNH
hPa
Press
MSL
hPa
Rain since
9am
mm
Dir  Spd
km/h
Gust
km/h
Spd
kts
Gust
kts
17/11:30pm 14.3 9.3 13.3 94 0.6 ESE 32 46 17 25 1016.4 1016.4 2.8
17/11:00pm 14.2 8.6 13.4 95 0.4 ESE 35 46 19 25 1016.7 1016.7 2.8
17/10:30pm 14.0 10.1 13.2 95 0.4 SE 26 35 14 19 1017.2 1017.2 2.8
17/10:00pm 14.0 8.9 13.2 95 0.4 SE 32 43 17 23 1017.4 1017.4 2.8
17/09:30pm 14.1 8.8 13.1 94 0.6 SE 33 43 18 23 1017.6 1017.6 2.8
17/09:00pm 13.9 8.2 13.0 94 0.5 ESE 35 48 19 26 1017.6 1017.6 2.8
17/08:30pm 13.9 7.1 13.0 94 0.5 ESE 41 52 22 28 1017.4 1017.4 2.8
17/08:00pm 13.9 7.8 13.0 94 0.5 ESE 37 50 20 27 1017.3 1017.3 2.8
17/07:30pm 13.9 8.6 13.0 94 0.5 ESE 33 43 18 23 1017.2 1017.2 2.8
17/07:00pm 13.9 8.1 12.8 93 0.6 ESE 35 46 19 25 1017.0 1017.0 2.8
17/06:30pm 13.9 8.7 12.8 93 0.6 ESE 32 41 17 22 1016.9 1016.9 2.8
17/06:00pm 14.1 8.3 12.8 92 0.7 ESE 35 44 19 24 1016.8 1016.8 2.8
17/05:30pm 14.3 8.2 13.0 92 0.7 ESE 37 46 20 25 1016.5 1016.5 2.8
17/05:20pm 14.4 9.7 13.3 93 0.6 ESE 30 48 16 26 1016.2 1016.2 2.8
17/05:00pm 14.5 8.5 13.4 93 0.6 ESE 37 50 20 27 1016.2 1016.2 2.8
17/04:30pm 14.4 9.4 13.4 94 0.6 ESE 32 43 17 23 1015.9 1015.9 2.8
17/04:00pm 14.4 9.5 13.6 95 0.4 ESE 32 43 17 23 1016.1 1016.1 2.8
17/03:30pm 14.2 8.7 13.6 96 0.3 ESE 35 46 19 25 1015.7 1015.7 2.8
17/03:00pm 14.0 9.1 13.7 98 0.2 SE 32 43 17 23 1016.2 1016.2 2.8
17/02:30pm 14.0 9.5 13.8 99 0.1 SE 30 43 16 23 1016.5 1016.5 2.8
17/02:00pm 13.8 8.9 13.8 100 0.0 ESE 32 43 17 23 1017.1 1017.1 2.8
17/01:37pm 13.7 9.2 13.7 100 0.0 ESE 30 48 16 26 1017.4 1017.4 2.8
17/01:30pm 13.6 8.5 13.6 100 0.0 ESE 33 48 18 26 1017.4 1017.4 2.8
17/01:00pm 13.7 9.9 13.7 100 0.0 ESE 26 37 14 20 1018.1 1018.1 2.6
17/12:30pm 13.8 8.9 13.8 100 0.0 ESE 32 44 17 24 1018.1 1018.1 2.6
17/12:00pm 13.8 9.3 13.8 100 0.0 ESE 30 39 16 21 1018.4 1018.4 2.2
17/11:30am 13.9 9.8 13.9 100 0.0 ESE 28 35 15 19 1018.2 1018.2 2.2
17/11:00am 14.1 10.8 14.1 100 0.0 ESE 24 32 13 17 1018.3 1018.3 2.0
17/10:30am 13.9 11.0 13.9 100 0.0 ESE 22 32 12 17 1018.5 1018.5 1.6
17/10:00am 13.9 10.6 13.9 100 0.0 ESE 24 30 13 16 1018.6 1018.6 0.8
17/09:30am 13.9 10.2 13.9 100 0.0 ESE 26 35 14 19 1018.3 1018.3 0.0
17/09:00am 14.1 10.5 14.1 100 0.0 ESE 26 33 14 18 1018.0 1018.0 8.2
17/08:30am 14.3 12.1 14.3 100 0.0 ESE 19 26 10 14 1017.7 1017.7 7.8
17/08:00am 14.4 12.0 14.4 100 0.0 ESE 20 28 11 15 1017.5 1017.5 7.6
17/07:30am 14.3 10.7 14.3 100 0.0 ESE 26 32 14 17 1017.1 1017.1 7.6
17/07:00am 14.2 11.9 14.2 100 0.0 ESE 19 26 10 14 1016.9 1016.9 7.6
17/06:30am 14.0 11.7 14.0 100 0.0 ESE 19 24 10 13 1016.5 1016.5 7.6
17/06:00am 14.0 11.7 14.0 100 0.0 ESE 19 24 10 13 1016.2 1016.2 7.4
17/05:30am 14.2 11.4 14.2 100 0.0 ESE 22 30 12 16 1015.6 1015.6 7.2
17/05:00am 14.2 11.4 14.2 100 0.0 ESE 22 30 12 16 1015.6 1015.6 7.0
17/04:30am 14.1 11.2 14.1 100 0.0 SE 22 28 12 15 1015.1 1015.1 6.8
17/04:00am 14.0 12.0 14.0 100 0.0 SE 17 19 9 10 1014.7 1014.7 6.8
17/03:30am 14.0 12.8 14.0 100 0.0 SE 13 17 7 9 1014.5 1014.5 6.8
17/03:00am 14.0 12.8 14.0 100 0.0 ESE 13 19 7 10 1014.4 1014.4 6.8
17/02:30am 14.0 12.4 14.0 100 0.0 SE 15 19 8 10 1014.3 1014.3 6.8
17/02:00am 13.6 12.7 13.6 100 0.0 ESE 11 15 6 8 1014.8 1014.8 6.6
17/01:30am 13.5 12.9 13.5 100 0.0 E 9 13 5 7 1015.1 1015.1 6.2
17/01:00am 13.5 13.3 13.5 100 0.0 ESE 7 19 4 10 1015.0 1015.0 6.2
17/12:30am 13.9 8.9 13.9 100 0.0 NE 33 57 18 31 1013.4 1013.4 6.0
17/12:22am 13.4 9.2 13.4 100 0.0 NE 28 50 15 27 1013.9 1013.9 5.4
17/12:00am 13.2 10.0 13.2 100 0.0 ENE 22 32 12 17 1014.7 1014.7 4.2
 
Date/Time
CST
Temp
°C
App
Temp
°C
Dew
Point
°C
Rel
Hum
%
Delta-T
°C
Wind Press
QNH
hPa
Press
MSL
hPa
Rain since
9am
mm
Dir  Spd
km/h
Gust
km/h
Spd
kts
Gust
kts
16/11:30pm 13.2 11.7 13.2 100 0.0 E 13 17 7 9 1015.5 1015.5 3.6
16/11:00pm 13.2 11.0 13.2 100 0.0 ESE 17 20 9 11 1015.4 1015.4 3.0
16/10:30pm 13.2 10.3 13.0 99 0.1 E 20 28 11 15 1015.5 1015.5 2.4
16/10:00pm 13.2 10.5 12.9 98 0.2 E 19 26 10 14 1015.2 1015.2 2.2
16/09:30pm 13.4 11.1 12.9 97 0.3 ESE 17 22 9 12 1015.2 1015.2 1.8
16/09:00pm 14.0 11.8 13.4 96 0.3 SE 17 20 9 11 1015.1 1015.1 1.2
16/08:30pm 14.5 12.8 13.7 95 0.4 SE 15 17 8 9 1014.7 1014.7 0.6
16/08:00pm 14.9 13.3 12.9 88 1.1 SE 13 15 7 8 1014.1 1014.1 0.4
16/07:30pm 14.7 12.4 13.1 90 0.9 SE 17 22 9 12 1013.6 1013.6 0.4
16/07:00pm 14.6 12.6 12.8 89 1.0 SE 15 19 8 10 1013.7 1013.7 0.4
16/06:30pm 14.8 11.4 12.5 86 1.3 ESE 22 28 12 15 1013.5 1013.5 0.4
16/06:00pm 14.7 12.2 13.4 92 0.7 SE 19 24 10 13 1013.7 1013.7 0.4
16/05:30pm 15.3 13.8 13.2 87 1.2 SSW 13 17 7 9 1014.4 1014.4 0.2
16/05:00pm 15.9 14.5 13.4 85 1.4 SSE 13 15 7 8 1013.9 1013.9 0.0
16/04:30pm 17.0 15.0 11.5 70 3.0 SSW 13 19 7 10 1013.9 1013.9 0.0
16/04:00pm 16.4 16.1 12.6 78 2.1 SE 6 9 3 5 1013.6 1013.6 0.0
16/03:30pm 17.0 16.1 12.7 76 2.4 SE 9 11 5 6 1012.9 1012.9 0.0
16/03:00pm 17.4 16.3 13.1 76 2.4 SE 11 13 6 7 1012.9 1012.9 0.0
16/02:30pm 17.4 15.8 12.9 75 2.5 SE 13 15 7 8 1013.0 1013.0 0.0
16/02:00pm 18.0 16.1 13.1 73 2.8 SSE 15 19 8 10 1013.2 1013.2 0.0
16/01:30pm 17.8 16.6 12.9 73 2.7 SSE 11 15 6 8 1013.3 1013.3 0.0
16/01:00pm 21.0 20.1 11.3 54 5.4 NW 7 15 4 8 1013.6 1013.6 0.0
16/12:30pm 19.5 18.4 12.0 62 4.2 W 9 13 5 7 1014.1 1014.1 0.0
16/12:00pm 20.3 18.2 11.2 56 5.0 WNW 13 17 7 9 1014.3 1014.3 0.0
16/11:30am 21.0 17.7 9.6 48 6.1 NW 17 24 9 13 1014.5 1014.5 0.0
16/11:00am 20.0 17.3 10.4 54 5.2 NNW 15 19 8 10 1014.9 1014.9 0.0
16/10:30am 20.1 17.4 10.5 54 5.2 NNW 15 22 8 12 1015.3 1015.3 0.0
16/10:00am 19.0 15.3 9.5 54 5.0 N 19 26 10 14 1015.4 1015.4 0.0
16/09:30am 18.9 15.1 9.7 55 4.9 N 20 28 11 15 1015.5 1015.5 0.0
16/09:00am 17.8 13.8 8.9 56 4.6 N 20 28 11 15 1015.7 1015.7 0.0
16/08:30am 17.3 14.2 9.0 58 4.3 N 15 19 8 10 1015.9 1015.9 0.0
16/08:00am 15.9 12.5 9.1 64 3.5 NNE 17 20 9 11 1015.6 1015.6 0.0
16/07:30am 15.0 11.2 8.9 67 3.1 NNE 19 26 10 14 1015.6 1015.6 0.0
16/07:00am 14.3 10.8 8.7 69 2.8 NNE 17 20 9 11 1015.5 1015.5 0.0
16/06:30am 14.3 10.8 8.7 69 2.8 NNE 17 24 9 13 1015.5 1015.5 0.0

Other formats

Comma delimited format used in spreadsheet applications
http://www.bom.gov.au/fwo/IDS60801/IDS60801.95649.axf

JavaScript Object Notation format (JSON) in row-major order
http://www.bom.gov.au/fwo/IDS60801/IDS60801.95649.json

Data quality

Most of these data are generated automatically and are frequently updated. Quality checks on data are not normally performed. It is possible for incorrect values to appear. Refer to information at About Latest Weather Observations and please check the disclaimer before using these data.